sensor_id;sensor_type;location;lat;lon;timestamp;P1;durP1;ratioP1;P2;durP2;ratioP2
56285;SDS011;42191;47.562;9.686;2022-11-20T00:01:05;37.50;;;35.20;;
56285;SDS011;42191;47.562;9.686;2022-11-20T00:03:36;37.65;;;35.33;;
56285;SDS011;42191;47.562;9.686;2022-11-20T00:06:02;35.90;;;33.40;;
56285;SDS011;42191;47.562;9.686;2022-11-20T00:08:30;36.10;;;33.65;;
56285;SDS011;42191;47.562;9.686;2022-11-20T00:10:56;37.50;;;35.22;;
56285;SDS011;42191;47.562;9.686;2022-11-20T00:13:22;36.03;;;33.67;;
56285;SDS011;42191;47.562;9.686;2022-11-20T00:15:50;34.95;;;32.85;;
56285;SDS011;42191;47.562;9.686;2022-11-20T00:18:23;36.42;;;34.25;;
56285;SDS011;42191;47.562;9.686;2022-11-20T00:20:49;35.75;;;33.65;;
56285;SDS011;42191;47.562;9.686;2022-11-20T00:23:16;36.17;;;33.97;;
56285;SDS011;42191;47.562;9.686;2022-11-20T00:25:42;35.67;;;33.35;;
56285;SDS011;42191;47.562;9.686;2022-11-20T00:28:08;38.20;;;35.90;;
56285;SDS011;42191;47.562;9.686;2022-11-20T00:30:34;36.25;;;34.05;;
56285;SDS011;42191;47.562;9.686;2022-11-20T00:33:00;39.17;;;36.78;;
56285;SDS011;42191;47.562;9.686;2022-11-20T00:35:26;36.58;;;34.28;;
56285;SDS011;42191;47.562;9.686;2022-11-20T00:37:52;38.90;;;36.47;;
56285;SDS011;42191;47.562;9.686;2022-11-20T00:40:18;36.17;;;33.88;;
56285;SDS011;42191;47.562;9.686;2022-11-20T00:42:44;36.78;;;34.47;;
56285;SDS011;42191;47.562;9.686;2022-11-20T00:45:10;36.50;;;34.28;;
56285;SDS011;42191;47.562;9.686;2022-11-20T00:47:37;37.03;;;34.78;;
56285;SDS011;42191;47.562;9.686;2022-11-20T00:50:03;36.67;;;34.38;;
56285;SDS011;42191;47.562;9.686;2022-11-20T00:52:29;37.85;;;35.35;;
56285;SDS011;42191;47.562;9.686;2022-11-20T00:54:55;37.75;;;35.45;;
56285;SDS011;42191;47.562;9.686;2022-11-20T00:57:21;35.03;;;32.83;;
56285;SDS011;42191;47.562;9.686;2022-11-20T00:59:47;37.90;;;35.55;;
56285;SDS011;42191;47.562;9.686;2022-11-20T01:02:14;38.17;;;35.78;;
56285;SDS011;42191;47.562;9.686;2022-11-20T01:04:41;38.13;;;35.75;;
56285;SDS011;42191;47.562;9.686;2022-11-20T01:07:07;36.92;;;34.53;;
56285;SDS011;42191;47.562;9.686;2022-11-20T01:09:33;36.10;;;33.88;;
56285;SDS011;42191;47.562;9.686;2022-11-20T01:11:59;37.35;;;35.05;;
56285;SDS011;42191;47.562;9.686;2022-11-20T01:14:25;36.45;;;34.25;;
56285;SDS011;42191;47.562;9.686;2022-11-20T01:16:52;36.70;;;34.50;;
56285;SDS011;42191;47.562;9.686;2022-11-20T01:19:19;38.20;;;35.72;;
56285;SDS011;42191;47.562;9.686;2022-11-20T01:21:48;37.53;;;35.13;;
56285;SDS011;42191;47.562;9.686;2022-11-20T01:24:16;37.53;;;35.13;;
56285;SDS011;42191;47.562;9.686;2022-11-20T01:26:45;37.42;;;35.17;;
56285;SDS011;42191;47.562;9.686;2022-11-20T01:29:17;36.67;;;34.42;;
56285;SDS011;42191;47.562;9.686;2022-11-20T01:31:45;37.10;;;34.80;;
56285;SDS011;42191;47.562;9.686;2022-11-20T01:34:15;37.05;;;34.67;;
56285;SDS011;42191;47.562;9.686;2022-11-20T01:36:43;39.13;;;36.63;;
56285;SDS011;42191;47.562;9.686;2022-11-20T01:39:11;38.97;;;36.47;;
56285;SDS011;42191;47.562;9.686;2022-11-20T01:41:42;37.80;;;35.40;;
56285;SDS011;42191;47.562;9.686;2022-11-20T01:47:48;37.00;;;34.60;;
56285;SDS011;42191;47.562;9.686;2022-11-20T01:50:25;37.63;;;35.33;;
56285;SDS011;42191;47.562;9.686;2022-11-20T01:52:55;39.45;;;36.95;;
56285;SDS011;42191;47.562;9.686;2022-11-20T01:55:26;37.30;;;34.90;;
56285;SDS011;42191;47.562;9.686;2022-11-20T01:57:55;39.80;;;37.20;;
56285;SDS011;42191;47.562;9.686;2022-11-20T02:00:22;36.95;;;34.65;;
56285;SDS011;42191;47.562;9.686;2022-11-20T02:02:54;37.45;;;34.97;;
56285;SDS011;42191;47.562;9.686;2022-11-20T02:05:27;37.38;;;35.08;;
56285;SDS011;42191;47.562;9.686;2022-11-20T02:07:59;38.42;;;36.05;;
56285;SDS011;42191;47.562;9.686;2022-11-20T02:10:27;38.05;;;35.65;;
56285;SDS011;42191;47.562;9.686;2022-11-20T02:12:54;36.80;;;34.58;;
56285;SDS011;42191;47.562;9.686;2022-11-20T02:15:39;36.35;;;33.92;;
56285;SDS011;42191;47.562;9.686;2022-11-20T02:18:06;36.50;;;34.28;;
56285;SDS011;42191;47.562;9.686;2022-11-20T02:20:32;37.65;;;35.30;;
56285;SDS011;42191;47.562;9.686;2022-11-20T02:25:29;37.40;;;35.00;;
56285;SDS011;42191;47.562;9.686;2022-11-20T02:27:57;38.78;;;36.38;;
56285;SDS011;42191;47.562;9.686;2022-11-20T02:30:24;36.45;;;34.15;;
56285;SDS011;42191;47.562;9.686;2022-11-20T02:32:50;37.15;;;34.85;;
56285;SDS011;42191;47.562;9.686;2022-11-20T02:37:50;36.38;;;34.13;;
56285;SDS011;42191;47.562;9.686;2022-11-20T02:42:44;37.47;;;35.10;;
56285;SDS011;42191;47.562;9.686;2022-11-20T02:45:11;35.65;;;33.47;;
56285;SDS011;42191;47.562;9.686;2022-11-20T02:47:37;38.45;;;36.05;;
56285;SDS011;42191;47.562;9.686;2022-11-20T02:50:04;37.88;;;35.53;;
56285;SDS011;42191;47.562;9.686;2022-11-20T02:52:31;36.75;;;34.42;;
56285;SDS011;42191;47.562;9.686;2022-11-20T02:54:57;36.38;;;34.00;;
56285;SDS011;42191;47.562;9.686;2022-11-20T02:57:23;36.28;;;34.05;;
56285;SDS011;42191;47.562;9.686;2022-11-20T02:59:49;36.13;;;33.97;;
56285;SDS011;42191;47.562;9.686;2022-11-20T03:02:15;35.88;;;33.67;;
56285;SDS011;42191;47.562;9.686;2022-11-20T03:04:41;39.67;;;37.15;;
56285;SDS011;42191;47.562;9.686;2022-11-20T03:07:07;39.50;;;37.10;;
56285;SDS011;42191;47.562;9.686;2022-11-20T03:09:34;35.90;;;33.63;;
56285;SDS011;42191;47.562;9.686;2022-11-20T03:12:00;36.72;;;34.47;;
56285;SDS011;42191;47.562;9.686;2022-11-20T03:14:26;37.58;;;35.28;;
56285;SDS011;42191;47.562;9.686;2022-11-20T03:16:53;39.25;;;36.85;;
56285;SDS011;42191;47.562;9.686;2022-11-20T03:19:20;37.60;;;35.30;;
56285;SDS011;42191;47.562;9.686;2022-11-20T03:21:46;37.67;;;35.25;;
56285;SDS011;42191;47.562;9.686;2022-11-20T03:24:12;36.47;;;34.28;;
56285;SDS011;42191;47.562;9.686;2022-11-20T03:26:38;37.58;;;35.17;;
56285;SDS011;42191;47.562;9.686;2022-11-20T03:29:05;37.05;;;34.75;;
56285;SDS011;42191;47.562;9.686;2022-11-20T03:31:33;38.10;;;35.78;;
56285;SDS011;42191;47.562;9.686;2022-11-20T03:34:01;36.70;;;34.40;;
56285;SDS011;42191;47.562;9.686;2022-11-20T03:36:29;37.72;;;35.42;;
56285;SDS011;42191;47.562;9.686;2022-11-20T03:38:56;36.92;;;34.55;;
56285;SDS011;42191;47.562;9.686;2022-11-20T03:41:23;37.35;;;35.13;;
56285;SDS011;42191;47.562;9.686;2022-11-20T03:43:52;36.80;;;34.50;;
56285;SDS011;42191;47.562;9.686;2022-11-20T03:46:23;35.28;;;33.17;;
56285;SDS011;42191;47.562;9.686;2022-11-20T03:48:49;38.75;;;36.25;;
56285;SDS011;42191;47.562;9.686;2022-11-20T03:51:17;35.50;;;33.30;;
56285;SDS011;42191;47.562;9.686;2022-11-20T03:53:43;37.78;;;35.47;;
56285;SDS011;42191;47.562;9.686;2022-11-20T03:56:11;38.75;;;36.45;;
56285;SDS011;42191;47.562;9.686;2022-11-20T03:58:39;36.25;;;33.97;;
56285;SDS011;42191;47.562;9.686;2022-11-20T04:01:06;37.03;;;34.72;;
56285;SDS011;42191;47.562;9.686;2022-11-20T04:03:34;36.08;;;33.88;;
56285;SDS011;42191;47.562;9.686;2022-11-20T04:06:07;37.83;;;35.53;;
56285;SDS011;42191;47.562;9.686;2022-11-20T04:08:36;35.85;;;33.65;;
56285;SDS011;42191;47.562;9.686;2022-11-20T04:11:09;36.95;;;34.75;;
56285;SDS011;42191;47.562;9.686;2022-11-20T04:13:47;36.80;;;34.60;;
56285;SDS011;42191;47.562;9.686;2022-11-20T04:16:15;38.58;;;36.17;;
56285;SDS011;42191;47.562;9.686;2022-11-20T04:18:42;37.95;;;35.67;;
56285;SDS011;42191;47.562;9.686;2022-11-20T04:21:09;37.58;;;35.22;;
56285;SDS011;42191;47.562;9.686;2022-11-20T04:23:35;37.30;;;35.00;;
56285;SDS011;42191;47.562;9.686;2022-11-20T04:26:06;38.40;;;36.00;;
56285;SDS011;42191;47.562;9.686;2022-11-20T04:28:34;37.33;;;35.00;;
56285;SDS011;42191;47.562;9.686;2022-11-20T04:33:33;36.80;;;34.60;;
56285;SDS011;42191;47.562;9.686;2022-11-20T04:36:01;37.65;;;35.35;;
56285;SDS011;42191;47.562;9.686;2022-11-20T04:38:28;37.80;;;35.50;;
56285;SDS011;42191;47.562;9.686;2022-11-20T04:41:01;35.38;;;33.28;;
56285;SDS011;42191;47.562;9.686;2022-11-20T04:43:29;37.00;;;34.75;;
56285;SDS011;42191;47.562;9.686;2022-11-20T04:45:56;35.50;;;33.30;;
56285;SDS011;42191;47.562;9.686;2022-11-20T04:48:23;37.60;;;35.28;;
56285;SDS011;42191;47.562;9.686;2022-11-20T04:50:50;36.80;;;34.60;;
56285;SDS011;42191;47.562;9.686;2022-11-20T04:53:17;36.75;;;34.45;;
56285;SDS011;42191;47.562;9.686;2022-11-20T04:55:44;37.60;;;35.30;;
56285;SDS011;42191;47.562;9.686;2022-11-20T04:58:10;36.22;;;33.83;;
56285;SDS011;42191;47.562;9.686;2022-11-20T05:00:37;38.35;;;36.05;;
56285;SDS011;42191;47.562;9.686;2022-11-20T05:03:03;37.60;;;35.30;;
56285;SDS011;42191;47.562;9.686;2022-11-20T05:05:29;36.83;;;34.53;;
56285;SDS011;42191;47.562;9.686;2022-11-20T05:07:58;36.47;;;34.28;;
56285;SDS011;42191;47.562;9.686;2022-11-20T05:10:25;36.83;;;34.63;;
56285;SDS011;42191;47.562;9.686;2022-11-20T05:12:52;36.42;;;34.17;;
56285;SDS011;42191;47.562;9.686;2022-11-20T05:15:18;37.85;;;35.50;;
56285;SDS011;42191;47.562;9.686;2022-11-20T05:17:48;36.50;;;34.30;;
56285;SDS011;42191;47.562;9.686;2022-11-20T05:20:15;36.08;;;33.88;;
56285;SDS011;42191;47.562;9.686;2022-11-20T05:22:41;37.13;;;34.92;;
56285;SDS011;42191;47.562;9.686;2022-11-20T05:25:08;37.05;;;34.85;;
56285;SDS011;42191;47.562;9.686;2022-11-20T05:27:35;36.60;;;34.40;;
56285;SDS011;42191;47.562;9.686;2022-11-20T05:30:02;39.30;;;36.72;;
56285;SDS011;42191;47.562;9.686;2022-11-20T05:32:28;35.75;;;33.65;;
56285;SDS011;42191;47.562;9.686;2022-11-20T05:34:54;38.55;;;36.10;;
56285;SDS011;42191;47.562;9.686;2022-11-20T05:37:21;36.75;;;34.55;;
56285;SDS011;42191;47.562;9.686;2022-11-20T05:39:47;37.13;;;34.92;;
56285;SDS011;42191;47.562;9.686;2022-11-20T05:42:13;37.67;;;35.20;;
56285;SDS011;42191;47.562;9.686;2022-11-20T05:45:01;35.78;;;33.67;;
56285;SDS011;42191;47.562;9.686;2022-11-20T05:47:31;37.42;;;35.20;;
56285;SDS011;42191;47.562;9.686;2022-11-20T05:49:58;38.28;;;35.90;;
56285;SDS011;42191;47.562;9.686;2022-11-20T05:52:24;37.42;;;35.13;;
56285;SDS011;42191;47.562;9.686;2022-11-20T05:54:53;37.17;;;34.97;;
56285;SDS011;42191;47.562;9.686;2022-11-20T05:57:19;37.17;;;34.97;;
56285;SDS011;42191;47.562;9.686;2022-11-20T05:59:45;36.70;;;34.45;;
56285;SDS011;42191;47.562;9.686;2022-11-20T06:02:11;35.85;;;33.65;;
56285;SDS011;42191;47.562;9.686;2022-11-20T06:04:37;37.92;;;35.63;;
56285;SDS011;42191;47.562;9.686;2022-11-20T06:07:07;37.25;;;34.95;;
56285;SDS011;42191;47.562;9.686;2022-11-20T06:09:33;35.88;;;33.78;;
56285;SDS011;42191;47.562;9.686;2022-11-20T06:11:59;37.08;;;34.88;;
56285;SDS011;42191;47.562;9.686;2022-11-20T06:14:25;35.33;;;33.13;;
56285;SDS011;42191;47.562;9.686;2022-11-20T06:16:52;37.80;;;35.53;;
56285;SDS011;42191;47.562;9.686;2022-11-20T06:19:18;36.95;;;34.75;;
56285;SDS011;42191;47.562;9.686;2022-11-20T06:21:44;36.65;;;34.40;;
56285;SDS011;42191;47.562;9.686;2022-11-20T06:24:12;38.90;;;36.60;;
56285;SDS011;42191;47.562;9.686;2022-11-20T06:26:38;37.60;;;35.28;;
56285;SDS011;42191;47.562;9.686;2022-11-20T06:29:04;36.33;;;34.13;;
56285;SDS011;42191;47.562;9.686;2022-11-20T06:31:30;34.40;;;32.30;;
56285;SDS011;42191;47.562;9.686;2022-11-20T06:33:59;36.53;;;34.33;;
56285;SDS011;42191;47.562;9.686;2022-11-20T06:36:26;36.83;;;34.65;;
56285;SDS011;42191;47.562;9.686;2022-11-20T06:38:52;37.13;;;34.85;;
56285;SDS011;42191;47.562;9.686;2022-11-20T06:41:19;36.97;;;34.78;;
56285;SDS011;42191;47.562;9.686;2022-11-20T06:43:47;35.55;;;33.45;;
56285;SDS011;42191;47.562;9.686;2022-11-20T06:46:14;35.88;;;33.78;;
56285;SDS011;42191;47.562;9.686;2022-11-20T06:48:42;36.28;;;34.08;;
56285;SDS011;42191;47.562;9.686;2022-11-20T06:51:08;36.97;;;34.78;;
56285;SDS011;42191;47.562;9.686;2022-11-20T06:53:35;35.30;;;33.20;;
56285;SDS011;42191;47.562;9.686;2022-11-20T06:56:02;36.95;;;34.72;;
56285;SDS011;42191;47.562;9.686;2022-11-20T06:58:29;37.00;;;34.80;;
56285;SDS011;42191;47.562;9.686;2022-11-20T07:01:03;37.75;;;35.55;;
56285;SDS011;42191;47.562;9.686;2022-11-20T07:03:31;35.65;;;33.55;;
56285;SDS011;42191;47.562;9.686;2022-11-20T07:05:57;36.88;;;34.67;;
56285;SDS011;42191;47.562;9.686;2022-11-20T07:08:25;36.35;;;34.08;;
56285;SDS011;42191;47.562;9.686;2022-11-20T07:10:51;36.72;;;34.53;;
56285;SDS011;42191;47.562;9.686;2022-11-20T07:13:18;36.08;;;33.90;;
56285;SDS011;42191;47.562;9.686;2022-11-20T07:15:44;35.25;;;33.15;;
56285;SDS011;42191;47.562;9.686;2022-11-20T07:18:10;34.97;;;32.88;;
56285;SDS011;42191;47.562;9.686;2022-11-20T07:20:36;37.65;;;35.35;;
56285;SDS011;42191;47.562;9.686;2022-11-20T07:23:02;38.10;;;35.80;;
56285;SDS011;42191;47.562;9.686;2022-11-20T07:25:28;35.25;;;33.15;;
56285;SDS011;42191;47.562;9.686;2022-11-20T07:27:58;35.83;;;33.63;;
56285;SDS011;42191;47.562;9.686;2022-11-20T07:30:28;36.63;;;34.42;;
56285;SDS011;42191;47.562;9.686;2022-11-20T07:32:55;35.88;;;33.67;;
56285;SDS011;42191;47.562;9.686;2022-11-20T07:35:25;36.55;;;34.35;;
56285;SDS011;42191;47.562;9.686;2022-11-20T07:37:51;36.40;;;34.28;;
56285;SDS011;42191;47.562;9.686;2022-11-20T07:40:18;37.13;;;34.72;;
56285;SDS011;42191;47.562;9.686;2022-11-20T07:42:51;36.15;;;34.05;;
56285;SDS011;42191;47.562;9.686;2022-11-20T07:45:19;36.78;;;34.58;;
56285;SDS011;42191;47.562;9.686;2022-11-20T07:47:46;36.28;;;34.08;;
56285;SDS011;42191;47.562;9.686;2022-11-20T07:50:12;36.72;;;34.53;;
56285;SDS011;42191;47.562;9.686;2022-11-20T07:52:38;35.58;;;33.40;;
56285;SDS011;42191;47.562;9.686;2022-11-20T07:55:05;38.10;;;35.75;;
56285;SDS011;42191;47.562;9.686;2022-11-20T07:57:32;35.75;;;33.45;;
56285;SDS011;42191;47.562;9.686;2022-11-20T07:59:58;37.45;;;35.25;;
56285;SDS011;42191;47.562;9.686;2022-11-20T08:02:25;35.60;;;33.50;;
56285;SDS011;42191;47.562;9.686;2022-11-20T08:04:51;36.25;;;34.05;;
56285;SDS011;42191;47.562;9.686;2022-11-20T08:07:17;36.05;;;33.90;;
56285;SDS011;42191;47.562;9.686;2022-11-20T08:09:43;36.63;;;34.42;;
56285;SDS011;42191;47.562;9.686;2022-11-20T08:12:17;36.38;;;34.17;;
56285;SDS011;42191;47.562;9.686;2022-11-20T08:17:30;36.45;;;34.25;;
56285;SDS011;42191;47.562;9.686;2022-11-20T08:19:58;35.45;;;33.35;;
56285;SDS011;42191;47.562;9.686;2022-11-20T08:22:34;35.97;;;33.78;;
56285;SDS011;42191;47.562;9.686;2022-11-20T08:25:02;37.42;;;35.22;;
56285;SDS011;42191;47.562;9.686;2022-11-20T08:27:36;36.28;;;34.08;;
56285;SDS011;42191;47.562;9.686;2022-11-20T08:30:02;35.85;;;33.65;;
56285;SDS011;42191;47.562;9.686;2022-11-20T08:32:29;36.92;;;34.72;;
56285;SDS011;42191;47.562;9.686;2022-11-20T08:34:55;35.53;;;33.15;;
56285;SDS011;42191;47.562;9.686;2022-11-20T08:37:22;34.80;;;32.63;;
56285;SDS011;42191;47.562;9.686;2022-11-20T08:40:09;37.28;;;34.95;;
56285;SDS011;42191;47.562;9.686;2022-11-20T08:42:36;36.22;;;34.03;;
56285;SDS011;42191;47.562;9.686;2022-11-20T08:45:18;37.88;;;35.22;;
56285;SDS011;42191;47.562;9.686;2022-11-20T08:47:45;35.47;;;33.20;;
56285;SDS011;42191;47.562;9.686;2022-11-20T08:50:12;36.92;;;34.63;;
56285;SDS011;42191;47.562;9.686;2022-11-20T08:52:39;34.97;;;32.88;;
56285;SDS011;42191;47.562;9.686;2022-11-20T08:55:05;35.15;;;33.05;;
56285;SDS011;42191;47.562;9.686;2022-11-20T08:57:36;36.08;;;33.88;;
56285;SDS011;42191;47.562;9.686;2022-11-20T09:00:04;38.15;;;35.70;;
56285;SDS011;42191;47.562;9.686;2022-11-20T09:02:31;36.33;;;34.10;;
56285;SDS011;42191;47.562;9.686;2022-11-20T09:04:57;37.20;;;34.90;;
56285;SDS011;42191;47.562;9.686;2022-11-20T09:07:24;36.30;;;34.10;;
56285;SDS011;42191;47.562;9.686;2022-11-20T09:09:50;37.97;;;35.58;;
56285;SDS011;42191;47.562;9.686;2022-11-20T09:12:16;37.03;;;34.72;;
56285;SDS011;42191;47.562;9.686;2022-11-20T09:14:42;35.75;;;33.55;;
56285;SDS011;42191;47.562;9.686;2022-11-20T09:17:09;35.28;;;33.08;;
56285;SDS011;42191;47.562;9.686;2022-11-20T09:19:38;37.60;;;35.25;;
56285;SDS011;42191;47.562;9.686;2022-11-20T09:22:05;35.10;;;33.00;;
56285;SDS011;42191;47.562;9.686;2022-11-20T09:24:31;36.85;;;34.50;;
56285;SDS011;42191;47.562;9.686;2022-11-20T09:26:57;35.33;;;33.03;;
56285;SDS011;42191;47.562;9.686;2022-11-20T09:29:25;36.38;;;34.13;;
56285;SDS011;42191;47.562;9.686;2022-11-20T09:31:52;35.30;;;33.10;;
56285;SDS011;42191;47.562;9.686;2022-11-20T09:34:18;36.58;;;34.28;;
56285;SDS011;42191;47.562;9.686;2022-11-20T09:36:44;35.92;;;33.72;;
56285;SDS011;42191;47.562;9.686;2022-11-20T09:39:10;35.00;;;32.90;;
56285;SDS011;42191;47.562;9.686;2022-11-20T09:54:49;36.10;;;34.00;;
56285;SDS011;42191;47.562;9.686;2022-11-20T09:57:18;34.97;;;32.88;;
56285;SDS011;42191;47.562;9.686;2022-11-20T09:59:59;36.88;;;34.70;;
56285;SDS011;42191;47.562;9.686;2022-11-20T10:02:34;36.50;;;34.30;;
56285;SDS011;42191;47.562;9.686;2022-11-20T10:08:05;34.35;;;32.35;;
56285;SDS011;42191;47.562;9.686;2022-11-20T10:10:42;33.08;;;31.13;;
56285;SDS011;42191;47.562;9.686;2022-11-20T10:13:20;35.63;;;33.53;;
56285;SDS011;42191;47.562;9.686;2022-11-20T10:15:57;33.60;;;31.50;;
56285;SDS011;42191;47.562;9.686;2022-11-20T10:29:32;35.47;;;33.33;;
56285;SDS011;42191;47.562;9.686;2022-11-20T10:32:02;35.28;;;33.20;;
56285;SDS011;42191;47.562;9.686;2022-11-20T10:34:42;35.15;;;33.10;;
56285;SDS011;42191;47.562;9.686;2022-11-20T10:37:17;33.95;;;31.95;;
56285;SDS011;42191;47.562;9.686;2022-11-20T10:40:01;34.80;;;32.78;;
56285;SDS011;42191;47.562;9.686;2022-11-20T10:45:19;35.75;;;33.65;;
56285;SDS011;42191;47.562;9.686;2022-11-20T10:47:52;34.03;;;32.03;;
56285;SDS011;42191;47.562;9.686;2022-11-20T10:50:32;35.42;;;33.33;;
56285;SDS011;42191;47.562;9.686;2022-11-20T10:53:08;33.88;;;31.88;;
56285;SDS011;42191;47.562;9.686;2022-11-20T10:55:57;36.22;;;34.13;;
56285;SDS011;42191;47.562;9.686;2022-11-20T11:01:13;34.22;;;32.22;;
56285;SDS011;42191;47.562;9.686;2022-11-20T11:03:41;35.53;;;33.33;;
56285;SDS011;42191;47.562;9.686;2022-11-20T11:09:00;35.85;;;33.65;;
56285;SDS011;42191;47.562;9.686;2022-11-20T11:11:33;35.42;;;33.35;;
56285;SDS011;42191;47.562;9.686;2022-11-20T11:14:06;36.95;;;34.75;;
56285;SDS011;42191;47.562;9.686;2022-11-20T11:16:55;34.63;;;32.55;;
56285;SDS011;42191;47.562;9.686;2022-11-20T11:19:22;33.90;;;31.90;;
56285;SDS011;42191;47.562;9.686;2022-11-20T11:21:50;34.33;;;32.33;;
56285;SDS011;42191;47.562;9.686;2022-11-20T11:24:28;35.75;;;33.58;;
56285;SDS011;42191;47.562;9.686;2022-11-20T11:26:59;33.75;;;31.75;;
56285;SDS011;42191;47.562;9.686;2022-11-20T11:29:35;36.90;;;34.70;;
56285;SDS011;42191;47.562;9.686;2022-11-20T11:32:20;32.47;;;30.58;;
56285;SDS011;42191;47.562;9.686;2022-11-20T11:35:00;34.57;;;32.57;;
56285;SDS011;42191;47.562;9.686;2022-11-20T11:37:32;36.28;;;34.10;;
56285;SDS011;42191;47.562;9.686;2022-11-20T11:40:05;34.35;;;32.25;;
56285;SDS011;42191;47.562;9.686;2022-11-20T11:42:39;35.35;;;33.25;;
56285;SDS011;42191;47.562;9.686;2022-11-20T11:45:11;34.55;;;32.45;;
56285;SDS011;42191;47.562;9.686;2022-11-20T11:52:46;33.60;;;31.65;;
56285;SDS011;42191;47.562;9.686;2022-11-20T12:06:30;35.05;;;32.95;;
56285;SDS011;42191;47.562;9.686;2022-11-20T12:09:04;34.75;;;32.55;;
56285;SDS011;42191;47.562;9.686;2022-11-20T12:14:16;36.92;;;34.63;;
56285;SDS011;42191;47.562;9.686;2022-11-20T12:16:51;35.78;;;33.67;;
56285;SDS011;42191;47.562;9.686;2022-11-20T12:19:19;35.28;;;33.17;;
56285;SDS011;42191;47.562;9.686;2022-11-20T12:24:28;34.65;;;32.65;;
56285;SDS011;42191;47.562;9.686;2022-11-20T12:30:20;34.40;;;32.35;;
56285;SDS011;42191;47.562;9.686;2022-11-20T12:35:38;32.63;;;30.73;;
56285;SDS011;42191;47.562;9.686;2022-11-20T12:47:30;35.10;;;33.00;;
56285;SDS011;42191;47.562;9.686;2022-11-20T12:50:08;34.00;;;32.00;;
56285;SDS011;42191;47.562;9.686;2022-11-20T12:52:46;34.00;;;31.85;;
56285;SDS011;42191;47.562;9.686;2022-11-20T12:58:24;34.92;;;32.83;;
56285;SDS011;42191;47.562;9.686;2022-11-20T13:06:49;35.13;;;33.03;;
56285;SDS011;42191;47.562;9.686;2022-11-20T13:09:17;35.15;;;33.05;;
56285;SDS011;42191;47.562;9.686;2022-11-20T13:12:06;32.50;;;30.60;;
56285;SDS011;42191;47.562;9.686;2022-11-20T13:17:19;34.85;;;32.78;;
56285;SDS011;42191;47.562;9.686;2022-11-20T13:19:54;33.75;;;31.75;;
56285;SDS011;42191;47.562;9.686;2022-11-20T13:22:27;35.28;;;33.17;;
56285;SDS011;42191;47.562;9.686;2022-11-20T13:25:08;34.25;;;32.25;;
56285;SDS011;42191;47.562;9.686;2022-11-20T13:27:35;34.22;;;32.22;;
56285;SDS011;42191;47.562;9.686;2022-11-20T13:30:12;36.25;;;34.05;;
56285;SDS011;42191;47.562;9.686;2022-11-20T13:33:21;34.03;;;31.95;;
56285;SDS011;42191;47.562;9.686;2022-11-20T13:36:00;32.83;;;30.92;;
56285;SDS011;42191;47.562;9.686;2022-11-20T13:38:43;35.03;;;32.92;;
56285;SDS011;42191;47.562;9.686;2022-11-20T13:41:38;34.48;;;32.48;;
56285;SDS011;42191;47.562;9.686;2022-11-20T13:46:52;35.10;;;32.90;;
56285;SDS011;42191;47.562;9.686;2022-11-20T13:51:48;33.88;;;31.88;;
56285;SDS011;42191;47.562;9.686;2022-11-20T13:59:56;32.67;;;30.77;;
56285;SDS011;42191;47.562;9.686;2022-11-20T14:02:35;32.60;;;30.70;;
56285;SDS011;42191;47.562;9.686;2022-11-20T14:05:01;31.80;;;29.80;;
56285;SDS011;42191;47.562;9.686;2022-11-20T14:07:35;32.88;;;30.98;;
56285;SDS011;42191;47.562;9.686;2022-11-20T14:10:06;33.10;;;31.10;;
56285;SDS011;42191;47.562;9.686;2022-11-20T14:12:44;30.67;;;28.88;;
56285;SDS011;42191;47.562;9.686;2022-11-20T14:15:25;30.23;;;28.50;;
56285;SDS011;42191;47.562;9.686;2022-11-20T14:17:56;32.45;;;30.55;;
56285;SDS011;42191;47.562;9.686;2022-11-20T14:20:24;31.13;;;29.33;;
56285;SDS011;42191;47.562;9.686;2022-11-20T14:22:53;32.30;;;30.33;;
56285;SDS011;42191;47.562;9.686;2022-11-20T14:25:21;30.88;;;29.08;;
56285;SDS011;42191;47.562;9.686;2022-11-20T14:27:56;31.83;;;30.02;;
56285;SDS011;42191;47.562;9.686;2022-11-20T14:30:25;33.27;;;31.10;;
56285;SDS011;42191;47.562;9.686;2022-11-20T14:33:01;32.65;;;30.67;;
56285;SDS011;42191;47.562;9.686;2022-11-20T14:35:44;30.65;;;28.80;;
56285;SDS011;42191;47.562;9.686;2022-11-20T14:40:40;33.55;;;31.55;;
56285;SDS011;42191;47.562;9.686;2022-11-20T14:43:17;31.08;;;29.25;;
56285;SDS011;42191;47.562;9.686;2022-11-20T14:45:54;31.48;;;29.67;;
56285;SDS011;42191;47.562;9.686;2022-11-20T14:48:23;30.95;;;29.15;;
56285;SDS011;42191;47.562;9.686;2022-11-20T14:50:55;31.30;;;29.40;;
56285;SDS011;42191;47.562;9.686;2022-11-20T14:53:22;31.52;;;29.63;;
56285;SDS011;42191;47.562;9.686;2022-11-20T14:55:54;30.65;;;28.85;;
56285;SDS011;42191;47.562;9.686;2022-11-20T14:58:23;32.78;;;30.88;;
56285;SDS011;42191;47.562;9.686;2022-11-20T15:03:34;31.42;;;29.52;;
56285;SDS011;42191;47.562;9.686;2022-11-20T15:06:01;32.90;;;30.90;;
56285;SDS011;42191;47.562;9.686;2022-11-20T15:08:29;32.35;;;30.45;;
56285;SDS011;42191;47.562;9.686;2022-11-20T15:10:56;33.58;;;31.52;;
56285;SDS011;42191;47.562;9.686;2022-11-20T15:15:56;34.08;;;31.98;;
56285;SDS011;42191;47.562;9.686;2022-11-20T15:18:25;33.05;;;31.05;;
56285;SDS011;42191;47.562;9.686;2022-11-20T15:21:12;33.15;;;31.20;;
56285;SDS011;42191;47.562;9.686;2022-11-20T15:23:40;31.88;;;29.95;;
56285;SDS011;42191;47.562;9.686;2022-11-20T15:26:07;33.42;;;31.33;;
56285;SDS011;42191;47.562;9.686;2022-11-20T15:28:41;34.55;;;32.47;;
56285;SDS011;42191;47.562;9.686;2022-11-20T15:31:12;34.33;;;32.22;;
56285;SDS011;42191;47.562;9.686;2022-11-20T15:33:40;35.40;;;33.10;;
56285;SDS011;42191;47.562;9.686;2022-11-20T15:36:07;35.45;;;33.25;;
56285;SDS011;42191;47.562;9.686;2022-11-20T15:38:34;33.35;;;31.30;;
56285;SDS011;42191;47.562;9.686;2022-11-20T15:41:00;36.65;;;34.45;;
56285;SDS011;42191;47.562;9.686;2022-11-20T15:43:27;36.63;;;34.42;;
56285;SDS011;42191;47.562;9.686;2022-11-20T15:45:59;35.92;;;33.80;;
56285;SDS011;42191;47.562;9.686;2022-11-20T15:48:51;36.72;;;34.53;;
56285;SDS011;42191;47.562;9.686;2022-11-20T15:51:33;35.78;;;33.63;;
56285;SDS011;42191;47.562;9.686;2022-11-20T15:54:11;35.38;;;33.28;;
56285;SDS011;42191;47.562;9.686;2022-11-20T15:56:43;36.38;;;34.08;;
56285;SDS011;42191;47.562;9.686;2022-11-20T15:59:09;38.35;;;35.95;;
56285;SDS011;42191;47.562;9.686;2022-11-20T16:01:35;38.30;;;35.83;;
56285;SDS011;42191;47.562;9.686;2022-11-20T16:04:01;38.67;;;36.22;;
56285;SDS011;42191;47.562;9.686;2022-11-20T16:06:29;37.30;;;34.90;;
56285;SDS011;42191;47.562;9.686;2022-11-20T16:08:55;39.03;;;36.45;;
56285;SDS011;42191;47.562;9.686;2022-11-20T16:11:21;38.10;;;35.80;;
56285;SDS011;42191;47.562;9.686;2022-11-20T16:13:48;37.42;;;35.05;;
56285;SDS011;42191;47.562;9.686;2022-11-20T16:16:33;37.25;;;34.75;;
56285;SDS011;42191;47.562;9.686;2022-11-20T16:19:01;34.08;;;31.98;;
56285;SDS011;42191;47.562;9.686;2022-11-20T16:21:27;36.90;;;34.60;;
56285;SDS011;42191;47.562;9.686;2022-11-20T16:23:58;37.63;;;35.25;;
56285;SDS011;42191;47.562;9.686;2022-11-20T16:26:25;38.38;;;35.88;;
56285;SDS011;42191;47.562;9.686;2022-11-20T16:28:51;37.67;;;35.30;;
56285;SDS011;42191;47.562;9.686;2022-11-20T16:31:18;36.90;;;34.60;;
56285;SDS011;42191;47.562;9.686;2022-11-20T16:33:52;37.03;;;34.72;;